ITY1198 LICR-LIML
Flight info
| Callsign | ITY1198 |
|---|---|
| Flight time | N/A |
| Altitude | 38000 |
| Route | PAZZE DCT DIRED DCT PNZ DCT TORLI DCT GILIO DCT KARDU DCT EMBOS DCT GIPIX DCT KALMO |
| Aircraft | A319/M-SDE3FGHIRWY/LB1 |
Departure
| Time | N/A |
|---|---|
| Airport | Reggio Calabria Airport (LICR) |
Arrival
| Time | 2026-04-30 18:18 |
|---|---|
| Airport | Milano Linate Airport (LIML) |
| Time | Latitude | Longitude | Altitude | Speed | Heading |
|---|---|---|---|---|---|
| 2026-04-30 17:39 | 42.26425 | 11.07394 | 38150 ft | 394 kts | 311° |
| 2026-04-30 17:41 | 42.43043 | 10.88337 | 38149 ft | 401 kts | 329° |
| 2026-04-30 17:42 | 42.48040 | 10.84981 | 38145 ft | 401 kts | 329° |
| 2026-04-30 17:43 | 42.60534 | 10.76563 | 38154 ft | 401 kts | 330° |
| 2026-04-30 17:44 | 42.75530 | 10.66401 | 38159 ft | 402 kts | 330° |
| 2026-04-30 17:47 | 42.98146 | 10.51228 | 38155 ft | 407 kts | 339° |
| 2026-04-30 17:48 | 43.17749 | 10.45887 | 38166 ft | 411 kts | 345° |
| 2026-04-30 17:50 | 43.39031 | 10.40255 | 38182 ft | 412 kts | 346° |
| 2026-04-30 17:52 | 43.55943 | 10.35743 | 38178 ft | 413 kts | 346° |
| 2026-04-30 17:54 | 43.81335 | 10.28930 | 38173 ft | 414 kts | 346° |
| 2026-04-30 17:55 | 43.91924 | 10.22623 | 35892 ft | 420 kts | 332° |
| 2026-04-30 17:56 | 44.02447 | 10.15413 | 32852 ft | 415 kts | 332° |
| 2026-04-30 17:57 | 44.08732 | 10.07672 | 31110 ft | 401 kts | 306° |
| 2026-04-30 17:58 | 44.13358 | 9.98194 | 29393 ft | 388 kts | 306° |
| 2026-04-30 17:59 | 44.19257 | 9.86099 | 27329 ft | 369 kts | 307° |
| 2026-04-30 18:00 | 44.24895 | 9.74488 | 25470 ft | 357 kts | 307° |
| 2026-04-30 18:00 | 44.28990 | 9.66011 | 24179 ft | 347 kts | 307° |
| 2026-04-30 18:01 | 44.31734 | 9.60529 | 23244 ft | 340 kts | 314° |
| 2026-04-30 18:02 | 44.37189 | 9.54618 | 21930 ft | 327 kts | 328° |
| 2026-04-30 18:02 | 44.42767 | 9.49267 | 20600 ft | 322 kts | 328° |
| 2026-04-30 18:03 | 44.48264 | 9.43966 | 19285 ft | 318 kts | 327° |
| 2026-04-30 18:04 | 44.53757 | 9.38735 | 17928 ft | 317 kts | 332° |
| 2026-04-30 18:05 | 44.62220 | 9.36459 | 16244 ft | 311 kts | 356° |
| 2026-04-30 18:06 | 44.70792 | 9.35564 | 14612 ft | 307 kts | 356° |
| 2026-04-30 18:07 | 44.79254 | 9.34673 | 12913 ft | 301 kts | 356° |
| 2026-04-30 18:08 | 44.85046 | 9.34070 | 11750 ft | 296 kts | 357° |
| 2026-04-30 18:09 | 44.89798 | 9.33579 | 10781 ft | 293 kts | 357° |
| 2026-04-30 18:10 | 44.97690 | 9.32742 | 9946 ft | 282 kts | 358° |
| 2026-04-30 18:11 | 45.05474 | 9.31919 | 8032 ft | 278 kts | 358° |
| 2026-04-30 18:11 | 45.11194 | 9.31298 | 6527 ft | 268 kts | 356° |
| 2026-04-30 18:12 | 45.16716 | 9.30685 | 5568 ft | 254 kts | 358° |
| 2026-04-30 18:13 | 45.20071 | 9.30326 | 4922 ft | 231 kts | 357° |
| 2026-04-30 18:13 | 45.24207 | 9.29886 | 4110 ft | 221 kts | 358° |
| 2026-04-30 18:14 | 45.27728 | 9.29509 | 3427 ft | 213 kts | 358° |
| 2026-04-30 18:15 | 45.31916 | 9.29059 | 2608 ft | 188 kts | 359° |
| 2026-04-30 18:15 | 45.35672 | 9.28656 | 1877 ft | 169 kts | 359° |
| 2026-04-30 18:16 | 45.37862 | 9.28419 | 1449 ft | 148 kts | 1° |
| 2026-04-30 18:16 | 45.39839 | 9.28208 | 1078 ft | 140 kts | 359° |
| 2026-04-30 18:17 | 45.40805 | 9.28105 | 893 ft | 137 kts | 358° |
| 2026-04-30 18:17 | 45.41755 | 9.28002 | 712 ft | 136 kts | 359° |
| 2026-04-30 18:17 | 45.43624 | 9.27806 | 374 ft | 132 kts | 359° |
| 2026-04-30 18:18 | 45.44429 | 9.27715 | 358 ft | 95 kts | 355° |
| 2026-04-30 18:18 | 45.44924 | 9.27663 | 358 ft | 55 kts | 356° |
| 2026-04-30 18:18 | 45.45224 | 9.27634 | 358 ft | 35 kts | 1° |
| 2026-04-30 18:18 | 45.45407 | 9.27733 | 360 ft | 24 kts | 32° |
| 2026-04-30 18:19 | 45.45458 | 9.27885 | 360 ft | 18 kts | 88° |
| 2026-04-30 18:19 | 45.45522 | 9.27978 | 362 ft | 16 kts | 1° |
| 2026-04-30 18:19 | 45.45614 | 9.27982 | 360 ft | 9 kts | 14° |
| 2026-04-30 18:19 | 45.45623 | 9.28051 | 358 ft | 8 kts | 90° |
| 2026-04-30 18:20 | 45.45623 | 9.28078 | 358 ft | 0 kts | 90° |